Terminal Aerodrome Forecast
Issued by NWS Mt. Holly, NJ

Home | Current Version | Previous Version | Text Only | Print | Product List | Glossary On
Versions: 1 2 3 4 5 6 7 8 9 10 11 12 13
000
FTUS41 KPHI 291133
TAFACY
TAF
KACY 291133Z 2912/3012 20010KT P6SM FEW200
     FM291800 20014G23KT P6SM FEW200
     FM292000 19015G26KT P6SM FEW035
     FM300000 20012KT P6SM FEW250
     FM300800 21008KT P6SM SCT090=

USA.gov is the U.S. government's official web portal to all federal, state and local government web resources and services.